Time;durP1;ratioP1;P1;durP2;ratioP2;P2;SDS_P1;SDS_P2;PMS_P1;PMS_P2;Temp;Humidity;BMP_temperature;BMP_pressure;BME280_temperature;BME280_humidity;BME280_pressure;Samples;Min_cycle;Max_cycle;Signal;HPM_P1;HPM_P2
2022/08/31 00:05:57;;;;;;;4.10;2.63;;;25.60;69.80;;;;;;6099313;23;20127;-66
2022/08/31 00:08:23;;;;;;;5.13;2.67;;;25.50;69.90;;;;;;6098984;23;20422;-66
2022/08/31 00:10:48;;;;;;;8.98;3.13;;;25.50;70.00;;;;;;6098715;23;20003;-67
2022/08/31 00:13:15;;;;;;;7.15;2.67;;;25.50;70.10;;;;;;6098957;23;20039;-66
2022/08/31 00:15:41;;;;;;;4.88;2.42;;;25.40;70.30;;;;;;6098852;23;20462;-67
2022/08/31 00:18:07;;;;;;;3.17;2.22;;;25.40;70.30;;;;;;6098757;23;20037;-67
2022/08/31 00:20:34;;;;;;;5.32;2.97;;;25.40;70.50;;;;;;6098596;23;20007;-66
2022/08/31 00:23:04;;;;;;;7.20;2.80;;;25.40;70.60;;;;;;6098542;23;20017;-66
2022/08/31 00:25:30;;;;;;;6.93;2.60;;;25.40;70.70;;;;;;6098829;23;20015;-66
2022/08/31 00:27:56;;;;;;;7.95;3.05;;;25.40;70.70;;;;;;6098876;23;20359;-67
2022/08/31 00:30:22;;;;;;;6.75;2.97;;;25.40;70.60;;;;;;6098553;23;20002;-67
2022/08/31 00:32:48;;;;;;;5.50;2.63;;;25.40;70.40;;;;;;6098430;23;20007;-67
2022/08/31 00:35:13;;;;;;;6.63;2.50;;;25.40;70.30;;;;;;6098907;23;20009;-67
2022/08/31 00:37:39;;;;;;;8.32;2.90;;;25.40;70.20;;;;;;6098891;23;20010;-67
2022/08/31 00:40:06;;;;;;;6.03;2.90;;;25.40;70.10;;;;;;6098587;23;20002;-67
2022/08/31 00:42:32;;;;;;;5.57;2.83;;;25.40;70.00;;;;;;6098421;23;20010;-66
2022/08/31 00:44:57;;;;;;;4.18;2.90;;;25.40;70.00;;;;;;6098525;23;20093;-67
2022/08/31 00:47:23;;;;;;;3.53;2.75;;;25.40;69.90;;;;;;6098476;23;20034;-66
2022/08/31 00:49:50;;;;;;;8.05;3.40;;;25.40;69.70;;;;;;6098638;23;20355;-66
2022/08/31 00:52:21;;;;;;;7.30;2.70;;;25.40;69.60;;;;;;6098714;23;20017;-66
2022/08/31 00:54:55;;;;;;;3.10;2.80;;;25.40;69.80;;;;;;6098762;23;20050;-66
2022/08/31 00:57:23;;;;;;;8.10;2.75;;;25.40;70.20;;;;;;6098456;23;19999;-66
2022/08/31 00:59:49;;;;;;;4.80;2.80;;;25.30;70.10;;;;;;6097910;23;20080;-66
2022/08/31 01:02:16;;;;;;;6.35;2.90;;;25.30;70.00;;;;;;6098191;23;20081;-66
2022/08/31 01:04:42;;;;;;;5.35;2.85;;;25.30;70.10;;;;;;6098455;23;20061;-66
2022/08/31 01:07:08;;;;;;;5.97;3.00;;;25.30;70.30;;;;;;6098020;23;20007;-66
2022/08/31 01:09:37;;;;;;;5.75;2.97;;;25.30;70.40;;;;;;6098336;23;20014;-66
2022/08/31 01:12:06;;;;;;;5.90;3.40;;;25.20;70.60;;;;;;6098436;23;20009;-66
2022/08/31 01:14:33;;;;;;;6.03;3.28;;;25.20;70.70;;;;;;6098652;23;20014;-66
2022/08/31 01:16:59;;;;;;;4.32;3.10;;;25.20;70.90;;;;;;6098104;23;20003;-66
2022/08/31 01:19:54;;;;;;;6.57;3.10;;;25.20;71.00;;;;;;6098083;23;20006;-66
2022/08/31 01:22:26;;;;;;;5.57;3.03;;;25.10;71.20;;;;;;6020116;23;20196;-66
2022/08/31 01:24:53;;;;;;;4.13;2.65;;;25.20;71.20;;;;;;6097795;23;20014;-67
2022/08/31 01:27:23;;;;;;;7.00;3.00;;;25.10;71.20;;;;;;6098017;23;20006;-65
2022/08/31 01:29:49;;;;;;;7.97;2.80;;;25.10;71.50;;;;;;6098421;23;20014;-67
2022/08/31 01:32:14;;;;;;;5.18;2.72;;;25.00;71.50;;;;;;6097944;23;20374;-67
2022/08/31 01:34:40;;;;;;;4.30;3.03;;;25.10;71.80;;;;;;6098048;23;20373;-66
2022/08/31 01:37:06;;;;;;;5.38;2.70;;;25.00;71.90;;;;;;6097845;23;20009;-67
2022/08/31 01:39:32;;;;;;;5.75;2.92;;;25.00;72.00;;;;;;6098373;23;20010;-66
2022/08/31 01:41:58;;;;;;;7.13;3.05;;;25.00;71.80;;;;;;6097678;23;20058;-67
2022/08/31 01:44:25;;;;;;;6.95;2.80;;;25.00;71.80;;;;;;6097904;23;20089;-66
2022/08/31 01:46:51;;;;;;;6.45;2.70;;;25.00;71.70;;;;;;6097937;23;19999;-66
2022/08/31 01:49:19;;;;;;;7.78;3.28;;;25.00;71.50;;;;;;6097820;23;20002;-67
2022/08/31 01:51:45;;;;;;;4.53;3.10;;;25.00;71.50;;;;;;6097521;23;20022;-67
2022/08/31 01:54:11;;;;;;;5.47;2.90;;;25.00;71.30;;;;;;6097976;23;20307;-67
2022/08/31 01:56:41;;;;;;;5.07;2.92;;;25.00;70.80;;;;;;6097623;23;20009;-66
2022/08/31 01:59:09;;;;;;;5.72;2.83;;;25.00;70.20;;;;;;6097658;23;20085;-66
2022/08/31 02:01:39;;;;;;;7.10;2.70;;;25.00;69.40;;;;;;6097692;23;20015;-66
2022/08/31 02:04:07;;;;;;;5.55;2.90;;;25.00;68.80;;;;;;6097527;23;20011;-67
2022/08/31 02:06:33;;;;;;;4.47;3.22;;;25.00;67.30;;;;;;6097566;23;20014;-67
2022/08/31 02:09:00;;;;;;;10.63;3.33;;;25.00;67.00;;;;;;6097674;23;20038;-67
2022/08/31 02:11:26;;;;;;;5.50;2.90;;;25.00;66.40;;;;;;6098103;23;20342;-67
2022/08/31 02:13:52;;;;;;;5.50;3.10;;;25.00;66.20;;;;;;6097446;23;20002;-67
2022/08/31 02:16:18;;;;;;;4.43;2.75;;;25.10;66.00;;;;;;6097514;23;20081;-66
2022/08/31 02:18:43;;;;;;;5.28;3.08;;;25.10;65.70;;;;;;6097320;23;20029;-67
2022/08/31 02:21:11;;;;;;;4.88;2.83;;;25.10;65.70;;;;;;6097393;23;20026;-67
2022/08/31 02:23:37;;;;;;;6.35;3.17;;;25.20;65.90;;;;;;6097828;23;20018;-67
2022/08/31 02:26:02;;;;;;;7.70;3.28;;;25.20;66.10;;;;;;6097718;23;20477;-67
2022/08/31 02:28:28;;;;;;;6.38;3.58;;;25.20;66.20;;;;;;6097389;23;20333;-66
2022/08/31 02:30:54;;;;;;;7.75;3.90;;;25.10;66.10;;;;;;6097740;23;20014;-67
2022/08/31 02:33:19;;;;;;;8.63;3.53;;;25.20;65.90;;;;;;6097496;23;20325;-67
2022/08/31 02:35:45;;;;;;;5.65;3.00;;;25.20;65.80;;;;;;6097469;23;20015;-67
2022/08/31 02:38:11;;;;;;;5.55;2.95;;;25.20;65.60;;;;;;6097063;23;20386;-67
2022/08/31 02:40:37;;;;;;;8.98;3.20;;;25.20;65.50;;;;;;6097396;23;20085;-67
2022/08/31 02:43:08;;;;;;;4.50;2.75;;;25.20;66.30;;;;;;6097571;23;20014;-67
2022/08/31 02:45:36;;;;;;;5.30;2.88;;;25.10;68.30;;;;;;6097436;23;20342;-67
2022/08/31 02:48:03;;;;;;;5.72;2.92;;;25.00;69.30;;;;;;6097085;23;19998;-66
2022/08/31 02:50:28;;;;;;;6.88;3.72;;;24.80;69.80;;;;;;6097467;23;20374;-66
2022/08/31 02:52:55;;;;;;;5.50;3.13;;;24.70;70.30;;;;;;6097422;23;20026;-67
2022/08/31 02:55:24;;;;;;;6.85;3.40;;;24.50;70.70;;;;;;6097524;23;20010;-66
2022/08/31 02:57:50;;;;;;;5.95;3.20;;;24.50;71.10;;;;;;6097244;23;20007;-66
2022/08/31 03:00:17;;;;;;;11.05;3.40;;;24.40;71.40;;;;;;6096787;23;20345;-66
2022/08/31 03:02:43;;;;;;;6.97;3.50;;;24.40;71.50;;;;;;6097285;23;20006;-67
2022/08/31 03:05:09;;;;;;;7.72;3.30;;;24.40;71.60;;;;;;6097146;23;20041;-67
2022/08/31 03:07:36;;;;;;;6.90;3.35;;;24.40;71.60;;;;;;6097114;23;20003;-67
2022/08/31 03:10:04;;;;;;;11.38;3.10;;;24.40;71.50;;;;;;6097195;23;20082;-67
2022/08/31 03:12:30;;;;;;;7.10;3.50;;;24.40;71.40;;;;;;6097044;23;20434;-67
2022/08/31 03:14:56;;;;;;;5.57;3.25;;;24.40;71.40;;;;;;6097296;23;20039;-67
2022/08/31 03:17:22;;;;;;;8.10;3.20;;;24.40;71.20;;;;;;6096923;23;20010;-66
2022/08/31 03:19:47;;;;;;;10.55;3.28;;;24.40;72.10;;;;;;6097075;23;20014;-65
2022/08/31 03:22:14;;;;;;;6.40;3.40;;;24.40;71.60;;;;;;6097245;23;20006;-67
2022/08/31 03:24:40;;;;;;;4.63;3.22;;;24.40;71.30;;;;;;6096908;23;20496;-67
2022/08/31 03:27:06;;;;;;;6.00;3.28;;;24.40;71.30;;;;;;6097012;23;20002;-66
2022/08/31 03:29:32;;;;;;;5.78;3.38;;;24.40;70.80;;;;;;6096885;23;20010;-66
2022/08/31 03:31:57;;;;;;;9.70;3.78;;;24.40;70.70;;;;;;6097087;23;20007;-67
2022/08/31 03:34:23;;;;;;;5.35;3.38;;;24.50;70.90;;;;;;6097112;23;20034;-67
2022/08/31 03:36:49;;;;;;;7.88;3.28;;;24.40;71.10;;;;;;6097231;23;20311;-67
2022/08/31 03:39:14;;;;;;;4.72;3.05;;;24.40;71.40;;;;;;6096978;23;20009;-66
2022/08/31 03:41:40;;;;;;;5.72;3.20;;;24.50;71.40;;;;;;6096956;23;19999;-67
2022/08/31 03:44:06;;;;;;;6.97;3.22;;;24.50;71.30;;;;;;6096945;23;20014;-66
2022/08/31 03:46:33;;;;;;;4.35;2.92;;;24.50;71.10;;;;;;6096771;23;20005;-67
2022/08/31 03:49:00;;;;;;;6.82;3.42;;;24.50;71.10;;;;;;6096714;23;20097;-67
2022/08/31 03:51:26;;;;;;;7.63;3.55;;;24.50;71.20;;;;;;6096898;23;20422;-66
2022/08/31 03:53:52;;;;;;;3.97;2.90;;;24.50;71.40;;;;;;6096934;23;20010;-65
2022/08/31 03:56:19;;;;;;;5.38;3.38;;;24.50;71.20;;;;;;6097128;23;20430;-67
2022/08/31 03:58:45;;;;;;;5.80;3.30;;;24.50;70.90;;;;;;6096489;23;20030;-66
2022/08/31 04:01:12;;;;;;;5.65;3.10;;;24.50;71.00;;;;;;6096792;23;20006;-66
2022/08/31 04:03:38;;;;;;;6.72;3.08;;;24.50;71.10;;;;;;6096997;23;19999;-67
2022/08/31 04:06:12;;;;;;;5.30;3.35;;;24.50;71.30;;;;;;6096919;23;20010;-66
2022/08/31 04:08:38;;;;;;;5.25;3.35;;;24.60;71.10;;;;;;6096708;23;19998;-67
2022/08/31 04:11:13;;;;;;;4.60;3.17;;;24.50;70.90;;;;;;6096884;23;20036;-67
2022/08/31 04:13:40;;;;;;;7.97;3.55;;;24.50;71.00;;;;;;6096708;23;19998;-66
2022/08/31 04:16:08;;;;;;;10.68;3.70;;;24.60;71.20;;;;;;6096649;23;19998;-67
2022/08/31 04:18:39;;;;;;;6.32;3.40;;;24.60;71.40;;;;;;6097146;23;20011;-66
2022/08/31 04:21:14;;;;;;;7.53;3.08;;;24.60;71.60;;;;;;6097008;23;20464;-67
2022/08/31 04:23:40;;;;;;;7.22;3.20;;;24.60;71.60;;;;;;6096662;23;20036;-67
2022/08/31 04:26:13;;;;;;;7.32;3.08;;;24.50;71.60;;;;;;6096845;23;20006;-67
2022/08/31 04:28:39;;;;;;;9.05;3.95;;;24.50;71.80;;;;;;6096769;23;20049;-67
2022/08/31 04:31:07;;;;;;;9.40;3.65;;;24.50;72.00;;;;;;6096961;23;20006;-67
2022/08/31 04:33:37;;;;;;;11.27;3.65;;;24.50;72.00;;;;;;6096736;23;20017;-66
2022/08/31 04:36:11;;;;;;;9.18;3.72;;;24.50;72.00;;;;;;6096822;23;19999;-67
2022/08/31 04:38:37;;;;;;;10.93;4.18;;;24.50;72.00;;;;;;6096578;23;20003;-67
2022/08/31 04:41:04;;;;;;;9.50;3.80;;;24.50;72.10;;;;;;6096712;23;20365;-66
2022/08/31 04:43:31;;;;;;;5.30;3.20;;;24.50;72.10;;;;;;6098103;23;20002;-68
2022/08/31 04:45:57;;;;;;;9.27;3.67;;;24.50;71.90;;;;;;6098652;23;20010;-66
2022/08/31 04:48:22;;;;;;;6.63;3.63;;;24.40;71.20;;;;;;6098533;23;20026;-66
2022/08/31 04:50:49;;;;;;;3.83;3.00;;;24.40;70.80;;;;;;6098557;23;20010;-66
2022/08/31 04:53:16;;;;;;;8.07;4.05;;;24.40;70.80;;;;;;6098379;23;19998;-66
2022/08/31 04:55:42;;;;;;;9.32;3.42;;;24.40;71.00;;;;;;6098744;23;20014;-66
2022/08/31 04:58:08;;;;;;;12.30;4.28;;;24.40;71.20;;;;;;6098186;23;20010;-66
2022/08/31 05:00:35;;;;;;;8.25;3.58;;;24.30;71.20;;;;;;6098255;23;20453;-66
2022/08/31 05:03:01;;;;;;;6.28;3.65;;;24.30;70.90;;;;;;6098345;23;20089;-66
2022/08/31 05:05:27;;;;;;;6.97;3.47;;;24.30;70.80;;;;;;6098419;23;20014;-66
2022/08/31 05:07:52;;;;;;;10.48;3.65;;;24.30;70.60;;;;;;6098204;23;20003;-66
2022/08/31 05:10:20;;;;;;;5.70;4.07;;;24.30;70.60;;;;;;6098301;23;20010;-67
2022/08/31 05:12:46;;;;;;;7.88;3.83;;;24.30;70.30;;;;;;6098192;23;20013;-66
2022/08/31 05:15:11;;;;;;;7.45;4.28;;;24.30;70.20;;;;;;6098398;23;20030;-66
2022/08/31 05:17:37;;;;;;;8.90;4.70;;;24.30;70.30;;;;;;6098155;23;20414;-66
2022/08/31 05:20:04;;;;;;;6.88;3.45;;;24.30;69.90;;;;;;6098305;23;20053;-66
2022/08/31 05:22:31;;;;;;;5.85;3.58;;;24.30;69.90;;;;;;6098389;23;20034;-67
2022/08/31 05:24:57;;;;;;;7.53;3.33;;;24.20;69.60;;;;;;6097898;23;20019;-66
2022/08/31 05:27:22;;;;;;;7.38;3.60;;;24.20;69.70;;;;;;6098479;23;20037;-66
2022/08/31 05:29:49;;;;;;;6.40;3.55;;;24.20;69.80;;;;;;6098043;23;20331;-66
2022/08/31 05:32:15;;;;;;;7.75;3.80;;;24.20;70.10;;;;;;6097956;23;20366;-66
2022/08/31 05:34:40;;;;;;;5.78;4.20;;;24.20;70.30;;;;;;6097953;23;20002;-66
2022/08/31 05:37:06;;;;;;;5.47;3.78;;;24.20;70.40;;;;;;6097791;23;20005;-66
2022/08/31 05:39:32;;;;;;;8.77;4.00;;;24.20;70.30;;;;;;6098025;23;20002;-67
2022/08/31 05:41:58;;;;;;;8.68;4.20;;;24.20;70.20;;;;;;6097621;23;20006;-66
2022/08/31 05:44:25;;;;;;;8.30;3.47;;;24.20;70.00;;;;;;6097898;23;20021;-66
2022/08/31 05:46:51;;;;;;;5.07;3.70;;;24.20;69.90;;;;;;6098191;23;20390;-66
2022/08/31 05:49:16;;;;;;;9.52;3.75;;;24.20;70.00;;;;;;6097731;23;20013;-67
2022/08/31 05:51:42;;;;;;;7.15;3.47;;;24.20;70.00;;;;;;6097897;23;20006;-66
2022/08/31 05:54:09;;;;;;;7.20;3.75;;;24.20;69.80;;;;;;6097101;23;20009;-67
2022/08/31 05:56:36;;;;;;;11.73;3.88;;;24.20;69.90;;;;;;6072917;23;20350;-66
2022/08/31 05:59:02;;;;;;;6.18;3.70;;;24.20;69.80;;;;;;6097647;23;20026;-66
2022/08/31 06:01:32;;;;;;;11.63;4.40;;;24.20;69.80;;;;;;6097942;23;20425;-67
2022/08/31 06:03:59;;;;;;;8.75;4.90;;;24.30;69.70;;;;;;6097576;23;20014;-66
2022/08/31 06:06:25;;;;;;;9.85;4.07;;;24.30;69.70;;;;;;6097652;23;20125;-67
2022/08/31 06:08:51;;;;;;;7.70;3.80;;;24.30;69.80;;;;;;6097567;23;20002;-67
2022/08/31 06:11:20;;;;;;;7.10;3.65;;;24.30;69.90;;;;;;6097583;23;20045;-66
2022/08/31 06:13:51;;;;;;;6.72;3.55;;;24.30;69.90;;;;;;6097395;23;20041;-66
2022/08/31 06:16:18;;;;;;;6.82;3.83;;;24.30;69.70;;;;;;6097807;23;20014;-66
2022/08/31 06:18:50;;;;;;;5.20;3.63;;;24.30;69.80;;;;;;6097871;23;20077;-66
2022/08/31 06:21:29;;;;;;;8.40;4.13;;;24.30;69.80;;;;;;6097424;23;20010;-66
2022/08/31 06:23:56;;;;;;;6.95;3.88;;;24.30;69.90;;;;;;6097311;23;20012;-66
2022/08/31 06:26:24;;;;;;;5.07;3.50;;;24.30;69.90;;;;;;6097621;23;20137;-66
2022/08/31 06:28:51;;;;;;;5.40;3.40;;;24.30;69.40;;;;;;6097136;23;20028;-67
2022/08/31 06:31:30;;;;;;;12.93;3.65;;;24.40;69.70;;;;;;6097417;23;20010;-66
2022/08/31 06:33:56;;;;;;;5.68;3.63;;;24.30;70.10;;;;;;6097533;23;20003;-66
2022/08/31 06:36:26;;;;;;;10.48;4.25;;;24.30;69.70;;;;;;6097308;23;19999;-67
2022/08/31 06:38:54;;;;;;;8.30;3.47;;;24.30;70.00;;;;;;6097746;23;20066;-66
2022/08/31 06:41:25;;;;;;;5.35;3.50;;;24.20;70.00;;;;;;6097406;23;19998;-65
2022/08/31 06:43:52;;;;;;;12.18;3.90;;;24.20;70.70;;;;;;6097348;23;20038;-66
2022/08/31 06:46:19;;;;;;;7.65;3.97;;;24.10;71.50;;;;;;6097458;23;20006;-66
2022/08/31 06:48:46;;;;;;;8.38;4.03;;;24.10;71.70;;;;;;6097368;23;20005;-67
2022/08/31 06:51:12;;;;;;;5.97;3.58;;;24.10;71.30;;;;;;6096992;23;20089;-66
2022/08/31 06:53:41;;;;;;;10.80;3.47;;;24.10;71.70;;;;;;6097071;23;20058;-66
2022/08/31 06:56:12;;;;;;;9.68;3.60;;;24.10;72.10;;;;;;6097562;23;20014;-66
2022/08/31 06:58:38;;;;;;;5.00;3.47;;;24.10;72.40;;;;;;6097167;23;20006;-67
2022/08/31 07:01:11;;;;;;;8.20;3.47;;;24.20;72.20;;;;;;6096893;23;20484;-66
2022/08/31 07:03:40;;;;;;;8.43;3.85;;;24.10;72.00;;;;;;6097265;23;20003;-66
2022/08/31 07:06:16;;;;;;;7.10;3.55;;;24.20;72.30;;;;;;6096898;23;20325;-66
2022/08/31 07:08:43;;;;;;;6.65;3.65;;;24.20;72.20;;;;;;6097001;23;20013;-67
2022/08/31 07:11:19;;;;;;;8.55;3.60;;;24.20;71.40;;;;;;6097353;23;20014;-67
2022/08/31 07:13:46;;;;;;;9.93;3.58;;;24.20;70.70;;;;;;6097187;23;19998;-67
2022/08/31 07:16:13;;;;;;;7.03;3.70;;;24.20;70.60;;;;;;6097339;23;20030;-66
2022/08/31 07:18:41;;;;;;;8.02;3.97;;;24.20;70.70;;;;;;6097020;23;20029;-66
2022/08/31 07:21:12;;;;;;;8.30;3.90;;;24.30;71.10;;;;;;6097179;23;20009;-66
2022/08/31 07:23:38;;;;;;;10.60;3.78;;;24.30;71.10;;;;;;6096782;23;20011;-66
2022/08/31 07:26:11;;;;;;;5.60;3.55;;;24.30;71.00;;;;;;6097162;23;20059;-66
2022/08/31 07:28:41;;;;;;;8.52;3.88;;;24.30;70.40;;;;;;6097050;23;20018;-67
2022/08/31 07:31:06;;;;;;;8.38;4.30;;;24.30;70.20;;;;;;6096880;23;20030;-66
2022/08/31 07:33:37;;;;;;;6.05;3.50;;;24.30;70.20;;;;;;6097188;23;20017;-66
2022/08/31 07:36:12;;;;;;;6.88;4.00;;;24.30;70.30;;;;;;6096778;23;20082;-67
2022/08/31 07:44:10;;;;;;;6.28;3.90;;;24.30;71.40;;;;;;6096792;23;20029;-66
2022/08/31 07:46:36;;;;;;;7.53;3.97;;;24.30;72.60;;;;;;6096943;23;19998;-66
2022/08/31 07:49:07;;;;;;;7.03;3.92;;;24.20;72.80;;;;;;6096718;23;20069;-66
2022/08/31 07:51:33;;;;;;;7.22;3.83;;;24.20;73.30;;;;;;6096766;23;19999;-66
2022/08/31 07:53:59;;;;;;;9.75;3.88;;;24.20;74.00;;;;;;6071173;23;20382;-66
2022/08/31 07:56:25;;;;;;;8.50;4.47;;;24.20;74.20;;;;;;6096820;23;20011;-67
2022/08/31 07:58:50;;;;;;;7.35;3.90;;;24.20;74.50;;;;;;6096846;23;20014;-65
2022/08/31 08:01:17;;;;;;;8.60;4.10;;;24.20;75.10;;;;;;6096608;23;20033;-66
2022/08/31 08:03:43;;;;;;;9.23;4.28;;;24.20;76.00;;;;;;6096771;23;20414;-66
2022/08/31 08:06:11;;;;;;;12.60;5.07;;;24.10;76.70;;;;;;6097085;23;20007;-66
2022/08/31 08:08:39;;;;;;;15.25;4.97;;;24.10;76.80;;;;;;6097156;23;20010;-66
2022/08/31 08:11:05;;;;;;;8.75;4.68;;;24.10;77.50;;;;;;6096634;23;20006;-66
2022/08/31 08:13:31;;;;;;;9.90;4.35;;;24.00;78.40;;;;;;6097020;23;20079;-66
2022/08/31 08:15:57;;;;;;;9.68;4.35;;;24.00;78.30;;;;;;6096859;23;20006;-66
2022/08/31 08:18:23;;;;;;;6.80;4.25;;;24.00;78.50;;;;;;6098172;23;20010;-66
2022/08/31 08:20:51;;;;;;;6.90;4.32;;;24.00;78.50;;;;;;6098510;23;20026;-66
2022/08/31 08:23:18;;;;;;;5.95;4.05;;;24.00;78.90;;;;;;6098528;23;20006;-66
2022/08/31 08:25:45;;;;;;;9.73;3.88;;;24.00;78.80;;;;;;6098425;23;20021;-66
2022/08/31 08:28:19;;;;;;;4.45;4.03;;;24.00;78.80;;;;;;6098626;23;20442;-66
2022/08/31 08:30:46;;;;;;;8.75;4.43;;;24.00;78.80;;;;;;6099067;23;20043;-65
2022/08/31 08:33:12;;;;;;;9.20;4.40;;;24.00;79.00;;;;;;6098549;23;20042;-66
2022/08/31 08:35:39;;;;;;;5.28;4.30;;;24.00;79.10;;;;;;6098661;23;20014;-66
2022/08/31 08:38:05;;;;;;;12.90;4.93;;;24.00;79.20;;;;;;6098502;23;20069;-65
2022/08/31 08:40:41;;;;;;;11.05;4.50;;;24.00;79.70;;;;;;6098546;23;20033;-66
2022/08/31 08:43:11;;;;;;;8.50;4.57;;;24.00;79.80;;;;;;6098872;23;20065;-66
2022/08/31 08:45:37;;;;;;;6.00;4.70;;;24.00;79.80;;;;;;6098401;23;20011;-66
2022/08/31 08:48:10;;;;;;;6.10;4.45;;;24.00;80.00;;;;;;6098569;23;20407;-66
2022/08/31 08:50:39;;;;;;;9.70;4.70;;;23.90;80.20;;;;;;6098225;23;20013;-66
2022/08/31 08:53:09;;;;;;;6.10;4.32;;;23.90;80.10;;;;;;6098317;23;20354;-67
2022/08/31 08:55:37;;;;;;;9.25;4.90;;;24.00;80.80;;;;;;6098347;23;20038;-66
2022/08/31 08:58:04;;;;;;;12.40;4.95;;;24.00;80.80;;;;;;6098710;23;20010;-66
2022/08/31 09:00:32;;;;;;;9.88;4.80;;;23.90;81.20;;;;;;6098290;23;20018;-67
2022/08/31 09:03:10;;;;;;;10.73;5.20;;;24.00;81.50;;;;;;6098361;23;20348;-66
2022/08/31 09:05:47;;;;;;;6.00;4.82;;;24.00;81.30;;;;;;6098569;23;20045;-66
2022/08/31 09:08:31;;;;;;;8.65;4.90;;;24.00;81.60;;;;;;6098625;23;19999;-67
2022/08/31 09:11:17;;;;;;;7.07;4.50;;;24.00;81.40;;;;;;6098130;23;20366;-66
2022/08/31 09:13:43;;;;;;;6.75;4.57;;;24.00;80.80;;;;;;6097891;23;20406;-66
2022/08/31 09:16:13;;;;;;;7.85;4.95;;;24.00;80.40;;;;;;6098311;23;20005;-66
2022/08/31 09:18:44;;;;;;;7.35;5.20;;;24.00;80.20;;;;;;6098334;23;20009;-66
2022/08/31 09:21:20;;;;;;;7.03;4.43;;;24.00;80.10;;;;;;6098042;23;20002;-66
2022/08/31 09:24:01;;;;;;;7.65;5.00;;;24.00;81.10;;;;;;6098108;23;20025;-66
2022/08/31 09:26:34;;;;;;;10.13;4.85;;;24.00;80.10;;;;;;6098463;23;20085;-67
2022/08/31 09:29:02;;;;;;;6.57;4.90;;;24.00;80.30;;;;;;6098224;23;20011;-66
2022/08/31 09:31:40;;;;;;;15.48;5.07;;;24.00;80.40;;;;;;6097801;23;20006;-66
2022/08/31 09:34:36;;;;;;;11.85;5.15;;;24.00;80.70;;;;;;6098263;23;20366;-67
2022/08/31 09:37:20;;;;;;;9.40;5.28;;;24.00;81.10;;;;;;6095513;23;20061;-66
2022/08/31 09:39:48;;;;;;;7.13;5.10;;;24.00;81.00;;;;;;6097783;23;20018;-66
2022/08/31 09:42:30;;;;;;;12.23;4.90;;;24.00;81.30;;;;;;6097849;23;20434;-66
2022/08/31 09:45:00;;;;;;;6.90;4.72;;;24.00;81.40;;;;;;6097637;23;20106;-66
2022/08/31 09:47:41;;;;;;;10.27;4.45;;;24.00;81.50;;;;;;6097841;23;19998;-66
2022/08/31 09:50:08;;;;;;;8.35;4.60;;;24.00;81.70;;;;;;6097730;23;20038;-66
2022/08/31 09:55:24;;;;;;;6.90;4.43;;;24.00;81.30;;;;;;6097886;23;20022;-66
2022/08/31 09:58:01;;;;;;;8.00;4.25;;;24.10;81.50;;;;;;6097720;23;20010;-66
2022/08/31 10:00:41;;;;;;;9.52;4.65;;;24.10;81.00;;;;;;6097372;23;20442;-66
2022/08/31 10:03:19;;;;;;;8.25;4.55;;;24.10;81.40;;;;;;6097684;23;20049;-66
2022/08/31 10:05:47;;;;;;;9.80;4.05;;;24.10;81.40;;;;;;6097522;23;20033;-66
2022/08/31 10:08:45;;;;;;;10.40;4.40;;;24.10;81.40;;;;;;6097723;23;20422;-66
2022/08/31 10:11:15;;;;;;;6.97;4.65;;;24.20;81.00;;;;;;6097934;23;20015;-66
2022/08/31 10:14:02;;;;;;;10.25;4.50;;;24.10;80.60;;;;;;6097556;23;20002;-66
2022/08/31 10:16:30;;;;;;;7.18;4.13;;;24.20;80.40;;;;;;6097449;23;20509;-66
2022/08/31 10:18:56;;;;;;;6.18;4.30;;;24.20;80.00;;;;;;6097975;23;20011;-67
2022/08/31 10:21:50;;;;;;;5.80;4.03;;;24.20;79.80;;;;;;6097498;23;20065;-66
2022/08/31 10:24:33;;;;;;;4.28;3.55;;;24.20;79.40;;;;;;6097412;23;20022;-67
2022/08/31 10:27:11;;;;;;;7.97;4.85;;;24.20;79.40;;;;;;6097594;23;20022;-66
2022/08/31 10:29:53;;;;;;;6.43;4.25;;;24.20;79.60;;;;;;6097595;23;20011;-67
2022/08/31 10:32:32;;;;;;;6.90;4.47;;;24.20;79.70;;;;;;6097420;23;20303;-66
2022/08/31 10:35:05;;;;;;;8.07;4.75;;;24.20;79.90;;;;;;6097649;23;20189;-66
2022/08/31 10:37:57;;;;;;;7.57;4.10;;;24.30;79.70;;;;;;6097137;23;20065;-66
2022/08/31 10:40:33;;;;;;;6.57;4.10;;;24.20;79.90;;;;;;6097196;23;20008;-66
2022/08/31 10:43:12;;;;;;;6.45;4.25;;;24.20;80.00;;;;;;6097535;23;20037;-66
2022/08/31 10:45:42;;;;;;;6.15;4.20;;;24.20;80.10;;;;;;6097475;23;20023;-66
2022/08/31 10:48:11;;;;;;;10.63;4.60;;;24.30;80.80;;;;;;6097268;23;20006;-67
2022/08/31 10:50:58;;;;;;;7.95;4.20;;;24.30;80.80;;;;;;6097230;23;20422;-66
2022/08/31 10:53:32;;;;;;;6.30;4.38;;;24.30;80.70;;;;;;6096911;23;20010;-66
2022/08/31 10:56:20;;;;;;;6.43;3.97;;;24.30;80.60;;;;;;6097822;23;20062;-66
2022/08/31 10:58:52;;;;;;;6.45;3.90;;;24.40;80.60;;;;;;6097147;23;20008;-66
2022/08/31 11:01:27;;;;;;;6.78;4.82;;;24.40;80.50;;;;;;6097581;23;20010;-66
2022/08/31 11:04:27;;;;;;;6.07;4.18;;;24.40;80.00;;;;;;6096825;23;20017;-66
2022/08/31 11:07:07;;;;;;;6.05;3.85;;;24.50;79.50;;;;;;6096995;23;20086;-66
2022/08/31 11:09:54;;;;;;;7.53;4.00;;;24.50;79.10;;;;;;6097147;23;20002;-66
2022/08/31 11:12:26;;;;;;;11.35;4.18;;;24.60;78.40;;;;;;6096919;23;20007;-66
2022/08/31 11:15:43;;;;;;;7.28;3.80;;;24.70;77.80;;;;;;6097148;23;20415;-66
2022/08/31 11:18:38;;;;;;;6.90;4.10;;;24.80;77.40;;;;;;6048847;23;20448;-66
2022/08/31 11:21:34;;;;;;;8.32;3.70;;;24.90;76.90;;;;;;6096905;23;20014;-66
2022/08/31 11:24:11;;;;;;;8.13;3.80;;;25.00;76.70;;;;;;6096986;23;20006;-67
2022/08/31 11:26:49;;;;;;;4.18;3.72;;;25.10;76.20;;;;;;6096817;23;20006;-66
2022/08/31 11:29:40;;;;;;;5.80;4.00;;;25.30;75.20;;;;;;6096992;23;20017;-67
2022/08/31 11:32:44;;;;;;;5.22;3.22;;;25.30;74.30;;;;;;6097076;23;20006;-66
2022/08/31 11:35:11;;;;;;;4.57;3.53;;;25.40;72.40;;;;;;6092538;23;20418;-66
2022/08/31 11:37:51;;;;;;;9.30;3.92;;;25.60;71.90;;;;;;6096831;23;20010;-66
2022/08/31 11:40:40;;;;;;;8.60;3.47;;;25.60;71.10;;;;;;6096852;23;20081;-66
2022/08/31 11:43:06;;;;;;;9.10;3.90;;;25.80;70.90;;;;;;6096969;23;20010;-66
2022/08/31 11:45:36;;;;;;;5.72;3.50;;;25.90;71.10;;;;;;6096828;23;20022;-66
2022/08/31 11:48:04;;;;;;;7.70;3.75;;;25.90;70.50;;;;;;6096640;23;20426;-66
2022/08/31 11:50:39;;;;;;;7.32;3.80;;;26.00;70.70;;;;;;6096839;23;20002;-66
2022/08/31 11:53:31;;;;;;;6.25;3.67;;;26.00;70.40;;;;;;6099289;23;20011;-66
2022/08/31 11:55:59;;;;;;;6.95;3.63;;;26.00;70.40;;;;;;6098876;23;20061;-66
2022/08/31 11:58:33;;;;;;;6.88;3.63;;;26.00;70.50;;;;;;6098856;23;20085;-66
2022/08/31 12:01:02;;;;;;;9.07;4.90;;;26.00;70.60;;;;;;6099192;23;20098;-66
2022/08/31 12:03:36;;;;;;;6.90;3.47;;;26.00;70.80;;;;;;6098878;23;20006;-66
2022/08/31 12:06:02;;;;;;;8.15;4.03;;;26.00;70.80;;;;;;6098609;23;20018;-66
2022/08/31 12:08:31;;;;;;;7.03;3.50;;;26.00;71.00;;;;;;6098590;23;20065;-66
2022/08/31 12:11:36;;;;;;;6.78;3.55;;;26.10;71.10;;;;;;6098706;23;20061;-66
2022/08/31 12:14:21;;;;;;;6.53;3.40;;;26.20;71.20;;;;;;6098107;23;20526;-66
2022/08/31 12:17:20;;;;;;;8.05;3.15;;;26.40;70.30;;;;;;6099180;23;20018;-66
2022/08/31 12:20:05;;;;;;;4.53;3.40;;;26.40;70.00;;;;;;6090500;23;20014;-66
2022/08/31 12:26:15;;;;;;;6.60;3.30;;;26.50;65.90;;;;;;6098725;23;20525;-66
2022/08/31 12:29:19;;;;;;;9.13;3.67;;;26.50;64.00;;;;;;6098395;23;20010;-66
2022/08/31 12:32:18;;;;;;;8.20;2.80;;;26.60;63.20;;;;;;6099129;23;20330;-66
2022/08/31 12:34:49;;;;;;;7.97;3.40;;;26.70;61.80;;;;;;6098572;23;20029;-66
2022/08/31 12:37:38;;;;;;;5.88;3.17;;;26.90;61.40;;;;;;6098531;23;20017;-66
2022/08/31 12:40:23;;;;;;;6.18;3.00;;;27.10;61.00;;;;;;6098284;23;20434;-66
2022/08/31 12:42:59;;;;;;;6.30;3.10;;;27.30;59.90;;;;;;6098307;23;20021;-66
2022/08/31 12:45:53;;;;;;;4.47;3.20;;;27.40;60.30;;;;;;6098335;23;20449;-67
2022/08/31 12:48:42;;;;;;;5.18;3.00;;;27.50;59.10;;;;;;6098900;23;20069;-66
2022/08/31 12:51:31;;;;;;;6.00;3.15;;;27.70;59.40;;;;;;6098502;23;20073;-66
2022/08/31 12:54:21;;;;;;;9.98;3.15;;;27.80;59.50;;;;;;6098525;23;20013;-66
2022/08/31 12:57:13;;;;;;;6.15;2.85;;;27.90;59.20;;;;;;6098207;23;20010;-67
2022/08/31 12:59:59;;;;;;;5.43;2.72;;;28.00;59.20;;;;;;6098070;23;20093;-66
2022/08/31 13:02:28;;;;;;;4.00;2.60;;;28.10;58.00;;;;;;6098384;23;20105;-66
2022/08/31 13:04:53;;;;;;;6.20;2.85;;;28.20;57.70;;;;;;6098029;23;20024;-66
2022/08/31 13:07:29;;;;;;;5.05;3.00;;;28.30;57.40;;;;;;6098328;23;20073;-66
2022/08/31 13:10:09;;;;;;;4.30;3.00;;;28.40;57.60;;;;;;6098282;23;20006;-67
2022/08/31 13:12:35;;;;;;;7.82;3.28;;;28.40;56.90;;;;;;6098412;23;20060;-67
2022/08/31 13:15:01;;;;;;;6.85;2.55;;;28.40;56.60;;;;;;6097998;23;20014;-66
2022/08/31 13:17:33;;;;;;;5.63;2.67;;;28.50;56.60;;;;;;6098225;23;20003;-67
2022/08/31 13:20:00;;;;;;;4.30;2.63;;;28.50;56.80;;;;;;6098271;23;20014;-66
2022/08/31 13:22:32;;;;;;;4.28;2.58;;;28.60;56.70;;;;;;6097907;23;20081;-66